Terminal Aerodrome Forecast
Issued by NWS

Home | Current Version | Previous Version | Text Only | Print | Product List | Glossary On
Versions: 1 2 3 4 5 6 7 8 9 10 11 12 13
000
FTUS43 KEAX 011700
TAFMKC
TAF
KMKC 011733Z 0118/0218 27010KT P6SM BKN050
     FM020000 VRB05KT P6SM BKN100
     FM021100 02004KT 6SM BR SCT010
     FM021400 05005KT P6SM SCT035=

USA.gov is the U.S. government's official web portal to all federal, state and local government web resources and services.